Montezuma, KS (67867)

4:23 PM CST on December 21, 2014 (GMT -0600)
4 miles NW of Fowler | Change Station
CLOSE
Current Station
Personal Weather Station
Location: Fowler, KS
Elevation: 2493 ft
Nearby Weather Stations

Elev 2493 ft 37.41 °N, 100.25 °W | Updated 14 minutes ago

Clear
Clear
47.3 °F
Feels Like 46 °F
N
4.0
Wind Variable Wind from SSE

Today
High -- | Low -- °F
--% Chance of Precip.
Yesterday
High -- | Low -- °F
Precip. -- in
7:53 AM 5:26 PM
Waning Crescent, 0% visible
Pressure 29.60 in
Visibility 10.0 miles
Clouds Clear
Windchill 46 °F
Dew Point 40 °F
Humidity 76%
Rainfall 0.00 in
Snow Depth Not available.
UV 0.0 out of 12
Pollen .10 out of 12
Air Quality Not available.
Flu Activity Not available.
METAR KGCK 212154Z 20012KT 10SM CLR 09/01 A2959 RMK AO2 SLP024 T00940011

More Conditions Fewer Conditions

Pressure 29.60 in
Visibility 10.0 miles
Clouds Clear
Windchill 46 °F
Dew Point 40 °F
Humidity 76%
Rainfall 0.00 in
Snow Depth Not available.
UV 0.0 out of 12
Pollen .10 out of 12
Air Quality Not available.
Flu Activity Not available.
METAR KGCK 212154Z 20012KT 10SM CLR 09/01 A2959 RMK AO2 SLP024 T00940011

More Conditions Fewer Conditions

10-Day Weather Forecast

Almanac

Astronomy

Dec. 21, 2014 Rise Set
Actual Time
Civil Twilight
Nautical Twilight
Astronomical Twilight
Moon
Length of Visible Light
Length of Day
Tomorrow will be .
, % of the Moon is Illuminated

Today's Extremes

State Highs State Lows

Community

WunderPhotos

Upload Photos

1,779,499 photos uploaded!

WunderBlogs® & News

Nearby

Air Quality

  Air Quality AQ Index Pollutant
Not available.

Snow Depth

Station Depth Elevation

Earthquake Activity

City Distance Mag. Time & Date
Minimum magnitude displayed is 2.5.

Coastal Water Temperatures

Place Temperature

Nearby Weather Stations